Terminal Aerodrome Forecast
Issued by NWS

Home | Current Version | Previous Version | Text Only | Print | Product List | Glossary On
Versions: 1 2 3 4 5 6 7 8 9 10 11 12 13 14 15 16 17 18 19 20 21 22 23 24 25 26 27 28 29 30 31 32 33 34 35 36 37 38 39 40
000
FTAK31 PANC 250304 AAA
TAFAGK
TAF AMD
PAGK 250304Z 2503/2524 15011KT P6SM -SHRA SCT025 OVC060
     FM250800 15008KT P6SM -RA BKN025 OVC040
     FM252100 16015G25KT P6SM -SHRA SCT025 OVC050=

USA.gov is the U.S. government's official web portal to all federal, state and local government web resources and services.